createdAt,value
2018-02-18T00:28:32.224Z,94.00
2018-02-18T00:31:00.559Z,99.40
2018-02-18T00:57:30.070Z,87.73
2018-02-18T00:59:58.327Z,63.10
2018-02-18T01:59:28.451Z,49.23
2018-02-18T02:01:56.702Z,53.50
2018-02-18T02:04:24.964Z,46.73
2018-02-18T02:06:53.253Z,53.03
2018-02-18T02:09:22.277Z,62.33
2018-02-18T02:11:51.295Z,47.13
2018-02-18T02:14:19.603Z,53.63
2018-02-18T02:16:47.843Z,41.10
2018-02-18T02:19:16.126Z,46.33
2018-02-18T02:21:44.535Z,40.67
2018-02-18T02:24:12.812Z,50.00
2018-02-18T02:26:41.079Z,48.20
2018-02-18T02:29:09.389Z,38.57
2018-02-18T02:31:38.453Z,55.80
2018-02-18T02:34:06.728Z,48.50
2018-02-18T02:36:35.022Z,42.17
2018-02-18T02:39:03.286Z,47.57
2018-02-18T02:41:31.530Z,45.33
2018-02-18T02:43:59.848Z,49.50
2018-02-18T02:46:28.148Z,36.30
2018-02-18T03:34:02.008Z,37.87
2018-02-18T03:36:30.310Z,40.77
2018-02-18T03:38:58.553Z,35.70
2018-02-18T03:41:26.839Z,30.97
2018-02-18T03:43:55.156Z,30.83
2018-02-18T03:46:24.192Z,39.23
2018-02-18T03:48:52.490Z,34.20
2018-02-18T03:51:20.771Z,39.43
2018-02-18T03:53:49.003Z,30.83
2018-02-18T03:56:17.276Z,32.80
2018-02-18T03:58:45.515Z,34.13
2018-02-18T04:01:13.776Z,31.10
2018-02-18T04:21:50.211Z,35.20
2018-02-18T04:24:18.452Z,30.77
2018-02-18T04:26:48.534Z,34.40
2018-02-18T04:29:16.796Z,34.07
2018-02-18T04:52:43.212Z,35.27
2018-02-18T05:01:12.742Z,32.10
2018-02-18T05:03:41.011Z,26.20
2018-02-18T05:44:57.997Z,31.60
2018-02-18T05:47:26.298Z,35.40
2018-02-18T05:55:54.766Z,34.60
2018-02-18T05:58:23.010Z,32.60
2018-02-18T06:00:51.444Z,32.90
2018-02-18T06:21:22.314Z,23.77
2018-02-18T06:23:51.358Z,25.70
2018-02-18T06:26:19.616Z,20.50
2018-02-18T06:28:47.934Z,20.77
2018-02-18T06:52:16.368Z,29.00
2018-02-18T07:36:46.666Z,13.60
2018-02-18T07:39:14.921Z,17.30
2018-02-18T08:48:43.090Z,15.43
2018-02-18T08:51:11.543Z,13.70
2018-02-18T08:53:39.789Z,12.67
2018-02-18T08:56:08.236Z,12.87
2018-02-18T08:58:37.238Z,26.13
2018-02-18T09:01:05.601Z,18.10
2018-02-18T09:03:33.968Z,39.17
2018-02-18T09:06:03.030Z,53.97
2018-02-18T09:08:31.367Z,23.50
2018-02-18T09:10:59.632Z,52.77
2018-02-18T09:13:27.904Z,20.40
2018-02-18T09:15:56.291Z,18.43
2018-02-18T09:18:24.642Z,39.57
2018-02-18T09:20:53.667Z,15.90
2018-02-18T09:23:22.051Z,17.77
2018-02-18T09:25:50.519Z,18.30
2018-02-18T09:28:18.811Z,16.80
2018-02-18T09:30:47.065Z,15.43
2018-02-18T09:33:15.310Z,19.40
2018-02-18T09:35:44.388Z,14.73
2018-02-18T09:38:12.639Z,14.87
2018-02-18T09:40:40.955Z,19.27
2018-02-18T09:43:09.277Z,59.87
2018-02-18T09:45:37.551Z,60.07
2018-02-18T09:48:05.815Z,17.90
2018-02-18T09:50:34.120Z,17.70
2018-02-18T09:53:02.426Z,16.00
2018-02-18T09:55:30.757Z,16.10
2018-02-18T09:57:59.008Z,14.40
2018-02-18T10:00:28.032Z,15.27
2018-02-18T10:02:56.342Z,19.63
2018-02-18T10:05:24.611Z,15.57
2018-02-18T10:07:52.980Z,17.97
2018-02-18T10:10:21.214Z,18.57
2018-02-18T10:12:49.898Z,16.77
2018-02-18T10:15:18.194Z,16.60
2018-02-18T10:17:46.465Z,17.27
2018-02-18T10:20:14.814Z,20.47
2018-02-18T10:22:43.839Z,18.37
2018-02-18T10:25:12.162Z,15.90
2018-02-18T10:27:40.533Z,15.43
2018-02-18T10:30:08.878Z,17.73
2018-02-18T10:32:37.213Z,20.77
2018-02-18T10:35:06.374Z,15.70
2018-02-18T10:37:34.672Z,16.97
2018-02-18T10:40:04.146Z,16.40
2018-02-18T10:42:32.397Z,17.80
2018-02-18T10:45:00.663Z,19.40
2018-02-18T10:47:29.084Z,20.37
2018-02-18T10:49:57.333Z,18.70
2018-02-18T10:52:25.728Z,21.30
2018-02-18T10:54:54.148Z,23.80
2018-02-18T10:57:22.399Z,21.43
2018-02-18T10:59:50.638Z,44.07
2018-02-18T11:02:18.972Z,36.63
2018-02-18T11:04:47.211Z,27.33
2018-02-18T11:07:15.456Z,22.70
2018-02-18T11:09:43.801Z,23.43
2018-02-18T11:12:12.858Z,24.63
2018-02-18T11:14:41.104Z,22.40
2018-02-18T11:17:09.721Z,20.83
2018-02-18T11:19:37.994Z,20.73
2018-02-18T11:22:06.254Z,22.03
2018-02-18T11:24:34.534Z,18.13
2018-02-18T11:27:02.781Z,19.20
2018-02-18T11:29:31.010Z,18.70
2018-02-18T11:31:59.346Z,16.90
2018-02-18T11:34:27.602Z,13.93
2018-02-18T11:36:55.976Z,15.87
2018-02-18T11:39:25.010Z,15.97
2018-02-18T11:41:54.571Z,15.63
2018-02-18T11:44:23.584Z,18.83
2018-02-18T11:46:51.919Z,17.70
2018-02-18T11:49:20.185Z,19.33
2018-02-18T11:51:48.458Z,19.17
2018-02-18T11:54:16.776Z,16.00
2018-02-18T11:56:45.112Z,16.00
2018-02-18T11:59:13.562Z,17.90
2018-02-18T12:01:41.846Z,14.67
2018-02-18T12:04:10.177Z,18.27
2018-02-18T12:06:38.677Z,14.27
2018-02-18T12:09:07.147Z,17.23
2018-02-18T12:11:35.737Z,18.20
2018-02-18T12:14:04.012Z,17.57
2018-02-18T12:16:32.369Z,13.70
2018-02-18T12:19:00.721Z,15.27
2018-02-18T12:21:28.966Z,16.20
2018-02-18T12:23:58.036Z,17.30
2018-02-18T12:26:26.283Z,13.40
2018-02-18T12:28:54.586Z,16.67
2018-02-18T12:31:23.731Z,14.57
2018-02-18T12:33:52.322Z,41.67
2018-02-18T12:36:20.700Z,20.50
2018-02-18T12:38:49.866Z,18.33
2018-02-18T12:41:18.126Z,17.47
2018-02-18T12:43:46.440Z,17.43
2018-02-18T12:46:14.823Z,16.00
2018-02-18T12:48:43.144Z,17.73
2018-02-18T12:51:12.224Z,17.30
2018-02-18T12:53:40.542Z,16.23
2018-02-18T12:56:08.941Z,15.00
2018-02-18T12:58:37.273Z,19.87
2018-02-18T13:01:06.417Z,15.40
2018-02-18T13:03:35.088Z,17.07
2018-02-18T13:06:03.304Z,15.33
2018-02-18T13:08:31.625Z,11.33
2018-02-18T13:10:59.891Z,12.33
2018-02-18T13:13:28.386Z,12.77
2018-02-18T13:15:56.714Z,15.70
2018-02-18T13:18:25.041Z,17.70
2018-02-18T13:20:53.327Z,16.60
2018-02-18T13:23:21.730Z,14.80
2018-02-18T13:25:50.090Z,16.70
2018-02-18T13:28:18.350Z,17.27
2018-02-18T13:30:46.804Z,13.00
2018-02-18T13:33:15.063Z,15.53
2018-02-18T13:35:44.098Z,14.97
2018-02-18T13:38:12.614Z,20.87
2018-02-18T13:40:41.028Z,12.67
2018-02-18T13:43:10.167Z,13.60
2018-02-18T13:45:38.445Z,10.07
2018-02-18T13:48:06.704Z,12.37
2018-02-18T13:50:34.955Z,11.97
2018-02-18T13:53:04.187Z,10.80
2018-02-18T13:55:32.433Z,15.13
2018-02-18T13:58:00.680Z,15.43
2018-02-18T14:00:28.954Z,10.27
2018-02-18T14:02:57.200Z,12.50
2018-02-18T14:05:25.446Z,15.73
2018-02-18T14:07:53.756Z,21.10
2018-02-18T14:10:22.040Z,14.30
2018-02-18T14:12:50.518Z,16.00
2018-02-18T14:15:18.840Z,13.80
2018-02-18T14:17:47.142Z,12.57
2018-02-18T14:20:15.572Z,10.00
2018-02-18T14:22:43.858Z,12.90
2018-02-18T14:25:12.212Z,18.37
2018-02-18T14:27:40.496Z,13.03
2018-02-18T14:30:09.578Z,15.00
2018-02-18T14:32:38.174Z,18.93
2018-02-18T14:35:07.222Z,15.20
2018-02-18T14:37:35.469Z,16.23
2018-02-18T14:40:03.949Z,13.70
2018-02-18T14:42:51.328Z,15.43
2018-02-18T14:45:37.446Z,11.40
2018-02-18T14:48:23.739Z,14.50
2018-02-18T14:51:09.874Z,13.00
2018-02-18T14:53:56.283Z,17.47
2018-02-18T15:10:04.638Z,12.33
2018-02-18T15:12:32.946Z,13.30
2018-02-18T15:15:01.217Z,15.23
2018-02-18T15:17:30.270Z,15.80
2018-02-18T15:19:58.532Z,11.57
2018-02-18T15:22:26.846Z,14.80
2018-02-18T15:24:55.877Z,12.13
2018-02-18T15:27:24.145Z,14.93
2018-02-18T15:29:52.740Z,12.73
2018-02-18T15:32:21.082Z,14.90
2018-02-18T15:34:49.481Z,16.40
2018-02-18T15:37:17.855Z,15.83
2018-02-18T15:39:46.235Z,14.40
2018-02-18T15:42:14.555Z,14.90
2018-02-18T15:44:43.031Z,17.47
2018-02-18T15:47:11.396Z,14.07
2018-02-18T15:49:39.756Z,17.60
2018-02-18T15:52:08.040Z,13.33
2018-02-18T15:54:36.355Z,15.07
2018-02-18T15:57:04.845Z,15.50
2018-02-18T15:59:33.199Z,22.13
2018-02-18T16:02:01.594Z,18.20
2018-02-18T16:04:30.001Z,23.80
2018-02-18T16:06:59.007Z,13.20
2018-02-18T16:09:27.488Z,15.03
2018-02-18T16:11:55.828Z,14.20
2018-02-18T16:14:24.071Z,18.47
2018-02-18T16:16:52.800Z,13.90
2018-02-18T16:19:21.061Z,15.37
2018-02-18T16:21:50.483Z,17.87
2018-02-18T16:24:18.981Z,25.37
2018-02-18T16:26:47.824Z,23.57
2018-02-18T16:29:16.614Z,36.80
2018-02-18T16:31:45.968Z,29.90
2018-02-18T16:34:14.395Z,14.57
2018-02-18T16:36:42.726Z,15.57
2018-02-18T16:39:11.698Z,29.20
2018-02-18T16:41:40.034Z,23.00
2018-02-18T16:44:09.293Z,17.30
2018-02-18T16:46:37.653Z,25.73
2018-02-18T16:49:06.526Z,24.73
2018-02-18T16:51:38.324Z,31.07
2018-02-18T16:54:07.224Z,24.77
2018-02-18T16:56:35.533Z,30.80
2018-02-18T16:59:04.006Z,42.33
2018-02-18T17:01:32.375Z,44.37
2018-02-18T17:04:00.631Z,34.50
2018-02-18T17:06:28.919Z,23.37
2018-02-18T17:08:57.173Z,19.23
2018-02-18T17:11:27.518Z,30.50
2018-02-18T17:13:56.406Z,28.93
2018-02-18T17:16:24.981Z,40.40
2018-02-18T17:18:55.283Z,39.40
2018-02-18T17:21:23.940Z,29.63
2018-02-18T17:23:53.140Z,28.87
2018-02-18T17:26:21.405Z,23.17
2018-02-18T17:28:49.851Z,26.27
2018-02-18T17:31:18.198Z,21.23
2018-02-18T17:33:46.760Z,24.93
2018-02-18T17:36:15.142Z,58.37
2018-02-18T17:38:43.482Z,77.80
2018-02-18T17:41:11.770Z,73.03
2018-02-18T17:43:40.107Z,33.27
2018-02-18T17:46:08.468Z,47.87
2018-02-18T17:48:36.895Z,31.53
2018-02-18T17:51:05.228Z,34.27
2018-02-18T17:53:34.445Z,31.80
2018-02-18T17:56:03.710Z,35.13
2018-02-18T17:58:32.210Z,26.63
2018-02-18T18:01:00.701Z,52.10
2018-02-18T18:03:29.172Z,33.73
2018-02-18T18:05:57.695Z,38.00
2018-02-18T18:08:26.069Z,29.53
2018-02-18T18:10:54.443Z,56.90
2018-02-18T18:13:22.805Z,58.37
2018-02-18T18:15:51.973Z,85.60
2018-02-18T18:18:21.108Z,99.23
2018-02-18T18:20:49.451Z,76.93
2018-02-18T18:23:17.901Z,45.57
2018-02-18T18:25:46.539Z,62.03
2018-02-18T18:28:14.953Z,56.07
2018-02-18T18:30:43.362Z,51.00
2018-02-18T18:33:12.109Z,39.67
2018-02-18T18:35:40.781Z,58.73
2018-02-18T18:38:09.342Z,41.93
2018-02-18T18:40:37.715Z,40.73
2018-02-18T18:43:06.187Z,48.53
2018-02-18T18:45:34.585Z,46.07
2018-02-18T18:48:03.882Z,44.23
2018-02-18T18:50:32.393Z,41.17
2018-02-18T18:53:01.473Z,43.17
2018-02-18T18:55:30.152Z,36.13
2018-02-18T18:57:58.684Z,50.83
2018-02-18T19:00:27.086Z,54.43
2018-02-18T19:02:55.513Z,64.50
2018-02-18T19:05:23.823Z,69.10
2018-02-18T19:07:52.327Z,64.77
2018-02-18T19:10:21.529Z,78.13
2018-02-18T19:12:49.934Z,43.70
2018-02-18T19:15:18.405Z,49.00
2018-02-18T19:17:46.849Z,56.23
2018-02-18T19:20:16.031Z,53.87
2018-02-18T19:22:44.933Z,34.90
2018-02-18T19:25:14.407Z,58.70
2018-02-18T19:27:42.708Z,58.10
2018-02-18T19:30:11.781Z,71.47
2018-02-18T19:32:40.126Z,71.03
2018-02-18T19:35:08.466Z,52.13
2018-02-18T19:37:37.581Z,47.03
2018-02-18T19:40:06.272Z,66.07
2018-02-18T19:42:34.663Z,76.60
2018-02-18T19:45:03.014Z,70.27
2018-02-18T19:47:31.542Z,45.50
2018-02-18T19:49:59.845Z,51.13
2018-02-18T19:52:28.145Z,53.37
2018-02-18T19:54:57.273Z,46.07
2018-02-18T19:57:25.550Z,49.07
2018-02-18T19:59:53.959Z,46.60
2018-02-18T20:02:23.215Z,43.10
2018-02-18T20:04:51.531Z,57.63
2018-02-18T20:07:19.805Z,49.60
2018-02-18T20:09:51.469Z,45.83
2018-02-18T20:12:36.107Z,53.70
2018-02-18T20:15:04.672Z,50.40
2018-02-18T20:17:33.266Z,47.97
2018-02-18T20:20:01.641Z,50.13
2018-02-18T20:22:30.008Z,50.77
2018-02-18T20:24:58.379Z,48.23
2018-02-18T20:27:26.969Z,51.33
2018-02-18T20:29:55.257Z,48.70
2018-02-18T20:32:23.671Z,41.77
2018-02-18T20:34:52.098Z,58.73
2018-02-18T20:37:20.449Z,48.80
2018-02-18T20:39:49.664Z,90.37
2018-02-18T20:42:17.975Z,48.43
2018-02-18T20:44:46.240Z,45.07
2018-02-18T20:47:14.618Z,48.40
2018-02-18T20:49:42.915Z,45.57
2018-02-18T20:52:11.214Z,63.67
2018-02-18T20:54:39.618Z,58.13
2018-02-18T20:57:08.040Z,46.67
2018-02-18T20:59:36.467Z,46.63
2018-02-18T21:02:05.583Z,36.83
2018-02-18T21:04:33.908Z,48.00
2018-02-18T21:07:02.270Z,47.67
2018-02-18T21:09:30.725Z,55.53
2018-02-18T21:11:59.070Z,48.00
2018-02-18T21:14:27.499Z,53.67
2018-02-18T21:16:55.849Z,38.20
2018-02-18T21:19:24.175Z,43.10
2018-02-18T21:21:52.584Z,37.10
2018-02-18T21:24:20.947Z,58.83
2018-02-18T21:26:49.240Z,56.47
2018-02-18T21:29:17.660Z,46.80
2018-02-18T21:31:45.986Z,49.33
2018-02-18T21:34:14.271Z,48.37
2018-02-18T21:36:43.353Z,52.13
2018-02-18T21:39:11.711Z,49.97
2018-02-18T21:41:40.015Z,41.90
2018-02-18T21:44:08.306Z,45.33
2018-02-18T21:46:37.394Z,36.93
2018-02-18T21:49:05.795Z,40.80
2018-02-18T21:51:34.101Z,33.47
2018-02-18T21:54:02.518Z,41.17
2018-02-18T21:56:30.804Z,48.50
2018-02-18T21:58:59.987Z,43.43
2018-02-18T22:01:29.281Z,40.37
2018-02-18T22:03:57.661Z,38.50
2018-02-18T22:06:26.157Z,43.53
2018-02-18T22:08:54.586Z,43.60
2018-02-18T22:11:22.876Z,47.80
2018-02-18T22:13:51.160Z,57.23
2018-02-18T22:16:19.506Z,39.03
2018-02-18T22:18:47.828Z,51.07
2018-02-18T22:21:16.159Z,41.97
2018-02-18T22:23:44.446Z,57.43
2018-02-18T22:26:12.752Z,55.77
2018-02-18T22:28:41.043Z,61.43
2018-02-18T22:31:10.314Z,57.17
2018-02-18T22:33:38.647Z,39.23
2018-02-18T22:36:07.001Z,41.90
2018-02-18T22:38:35.550Z,51.33
2018-02-18T22:41:03.870Z,61.43
2018-02-18T22:43:32.243Z,72.40
2018-02-18T22:46:00.583Z,55.30
2018-02-18T22:48:28.945Z,63.43
2018-02-18T22:50:57.234Z,63.20
2018-02-18T22:53:25.586Z,62.37
2018-02-18T22:55:53.888Z,58.07
2018-02-18T22:58:22.220Z,43.67
2018-02-18T23:00:50.517Z,38.90
2018-02-18T23:03:18.842Z,71.10
2018-02-18T23:05:53.031Z,51.27
2018-02-18T23:08:21.336Z,42.33
2018-02-18T23:10:49.660Z,49.73
2018-02-18T23:13:17.990Z,38.17
2018-02-18T23:15:46.364Z,42.63
2018-02-18T23:18:14.710Z,62.73
2018-02-18T23:21:00.738Z,42.10
2018-02-18T23:23:29.040Z,74.90
2018-02-18T23:25:57.348Z,58.00
2018-02-18T23:28:25.800Z,108.70
2018-02-18T23:30:54.279Z,65.33
2018-02-18T23:33:22.840Z,52.10
2018-02-18T23:35:52.002Z,47.70
2018-02-18T23:38:20.290Z,75.10
2018-02-18T23:40:48.586Z,38.53
2018-02-18T23:43:17.675Z,88.73
2018-02-18T23:45:45.975Z,60.20
2018-02-18T23:48:15.071Z,76.90
2018-02-18T23:50:44.174Z,49.53
2018-02-18T23:53:12.420Z,47.70
2018-02-18T23:55:41.493Z,67.77
2018-02-18T23:58:09.822Z,69.47
